Time;durP1;ratioP1;P1;durP2;ratioP2;P2;SDS_P1;SDS_P2;PMS_P1;PMS_P2;Temp;Humidity;BMP_temperature;BMP_pressure;BME280_temperature;BME280_humidity;BME280_pressure;Samples;Min_cycle;Max_cycle;Signal;HPM_P1;HPM_P2
2022/01/01 00:00:17;;;;;;;2.75;2.15;;;;;;;27.35;26.84;98062.94;5064532;28;20037;-80
2022/01/01 00:02:44;;;;;;;5.45;3.30;;;;;;;28.39;25.16;98069.97;5067211;28;20387;-79
2022/01/01 00:05:12;;;;;;;6.03;3.88;;;;;;;28.78;24.71;98062.00;5071791;28;20044;-80
2022/01/01 00:07:39;;;;;;;5.63;3.58;;;;;;;28.97;24.30;98063.59;5069605;28;20058;-80
2022/01/01 00:10:09;;;;;;;4.80;3.35;;;;;;;29.14;23.89;98067.72;5069434;28;20033;-79
2022/01/01 00:12:35;;;;;;;5.07;3.67;;;;;;;28.37;25.11;98072.47;5069625;28;20036;-80
2022/01/01 00:15:02;;;;;;;5.80;3.60;;;;;;;28.36;25.17;98065.22;5064484;28;20037;-80
2022/01/01 00:17:28;;;;;;;5.20;3.88;;;;;;;27.79;25.76;98069.44;5068772;28;20020;-79
2022/01/01 00:19:54;;;;;;;5.43;3.13;;;;;;;27.55;26.11;98067.50;5073200;28;20029;-80
2022/01/01 00:22:20;;;;;;;6.18;3.45;;;;;;;27.30;26.42;98068.38;5068701;28;20037;-80
2022/01/01 00:24:46;;;;;;;4.95;3.35;;;;;;;26.98;27.18;98068.69;5067843;28;20107;-80
2022/01/01 00:27:12;;;;;;;5.22;3.13;;;;;;;27.01;27.09;98064.94;5064775;28;20468;-79
2022/01/01 00:29:38;;;;;;;6.00;4.20;;;;;;;26.97;26.98;98067.91;5070287;28;20039;-79
2022/01/01 00:32:05;;;;;;;5.90;3.53;;;;;;;27.42;26.69;98069.59;5072642;28;20480;-79
2022/01/01 00:34:31;;;;;;;5.80;3.47;;;;;;;27.52;26.44;98074.84;5067357;28;20040;-80
2022/01/01 00:36:57;;;;;;;6.15;3.38;;;;;;;27.40;26.58;98068.03;5067243;28;20029;-80
2022/01/01 00:39:23;;;;;;;6.10;3.88;;;;;;;26.79;27.34;98072.56;5071914;28;20092;-79
2022/01/01 00:41:49;;;;;;;5.90;4.45;;;;;;;27.30;26.77;98068.38;5062917;28;20040;-79
2022/01/01 00:44:15;;;;;;;5.35;3.50;;;;;;;27.46;26.49;98075.91;5065943;28;20033;-79
2022/01/01 00:46:41;;;;;;;5.68;3.30;;;;;;;27.63;26.23;98075.28;5065725;28;20123;-79
2022/01/01 00:49:07;;;;;;;5.90;3.20;;;;;;;27.46;26.72;98078.72;5071962;28;20051;-79
2022/01/01 00:51:33;;;;;;;7.28;3.88;;;;;;;27.39;26.62;98077.75;5067351;28;20024;-79
2022/01/01 00:53:59;;;;;;;7.95;4.45;;;;;;;27.44;26.83;98076.38;5064820;28;20052;-79
2022/01/01 00:56:26;;;;;;;7.35;4.45;;;;;;;27.59;26.52;98073.81;5075606;28;20032;-79
2022/01/01 00:58:52;;;;;;;5.60;4.00;;;;;;;26.42;28.07;98079.75;5086171;28;20036;-79
2022/01/01 01:01:18;;;;;;;11.07;5.65;;;;;;;27.03;27.40;98076.56;5063643;28;20032;-79
2022/01/01 01:03:45;;;;;;;7.63;4.57;;;;;;;27.21;27.30;98076.75;5054298;28;20044;-79
2022/01/01 01:06:13;;;;;;;8.77;5.30;;;;;;;26.24;28.46;98087.94;5069769;28;20484;-79
2022/01/01 01:08:41;;;;;;;6.47;4.03;;;;;;;26.28;28.65;98092.22;5071334;28;20036;-79
2022/01/01 01:11:08;;;;;;;11.65;6.38;;;;;;;26.85;27.56;98088.44;5066261;28;20052;-79
2022/01/01 01:13:35;;;;;;;6.45;4.03;;;;;;;26.97;27.32;98075.56;5066601;28;20033;-79
2022/01/01 01:16:01;;;;;;;5.85;3.60;;;;;;;26.62;28.07;98094.41;5073309;28;20214;-79
2022/01/01 01:18:28;;;;;;;9.68;5.90;;;;;;;26.36;28.50;98087.97;5061019;28;20076;-79
2022/01/01 01:20:54;;;;;;;7.18;3.92;;;;;;;26.11;28.88;98092.78;5068527;28;20491;-79
2022/01/01 01:23:20;;;;;;;5.25;3.28;;;;;;;25.22;30.51;98100.03;5067752;28;20040;-79
2022/01/01 01:25:46;;;;;;;6.97;4.22;;;;;;;24.88;30.73;98083.66;5069188;28;20082;-79
2022/01/01 01:28:14;;;;;;;8.40;5.15;;;;;;;25.12;31.17;98090.66;5073502;28;20123;-79
2022/01/01 01:30:41;;;;;;;7.93;4.18;;;;;;;26.03;29.24;98083.72;5068869;28;20601;-79
2022/01/01 01:33:09;;;;;;;9.20;5.65;;;;;;;24.83;30.98;98086.22;5075063;28;20462;-79
2022/01/01 01:35:36;;;;;;;5.38;3.97;;;;;;;25.14;30.55;98090.22;5054788;28;20029;-79
2022/01/01 01:38:03;;;;;;;5.15;3.42;;;;;;;25.85;29.60;98092.69;5066778;28;20500;-79
2022/01/01 01:40:29;;;;;;;6.47;4.50;;;;;;;24.79;31.12;98093.91;5053717;28;20060;-79
2022/01/01 01:42:56;;;;;;;6.95;4.32;;;;;;;25.12;30.81;98087.84;5073647;28;20542;-79
2022/01/01 01:45:27;;;;;;;7.45;4.15;;;;;;;24.72;31.41;98103.28;5068144;28;20025;-79
2022/01/01 01:47:53;;;;;;;7.10;4.25;;;;;;;24.56;31.75;98106.88;5068332;28;20064;-80
2022/01/01 01:50:20;;;;;;;6.07;3.78;;;;;;;24.48;31.84;98105.44;5072616;28;20557;-80
2022/01/01 01:52:53;;;;;;;5.95;3.90;;;;;;;24.21;32.36;98112.47;5060902;28;20448;-79
2022/01/01 01:55:19;;;;;;;6.70;4.05;;;;;;;23.15;33.93;98108.94;5091606;28;20432;-80
2022/01/01 01:57:46;;;;;;;6.57;4.03;;;;;;;23.78;33.36;98126.59;5091559;28;20075;-79
2022/01/01 02:02:53;;;;;;;7.95;4.55;;;;;;;24.87;31.05;98140.25;5062255;28;20506;-80
2022/01/01 02:05:19;;;;;;;10.00;6.07;;;;;;;24.18;32.44;98135.81;5069764;28;20044;-80
2022/01/01 02:07:47;;;;;;;6.45;4.20;;;;;;;24.24;32.19;98139.69;5052360;28;20037;-80
2022/01/01 02:10:14;;;;;;;7.25;4.85;;;;;;;24.02;32.72;98150.53;5064425;28;20040;-80
2022/01/01 02:12:41;;;;;;;7.47;5.05;;;;;;;24.10;32.46;98142.78;5073431;28;20028;-80
2022/01/01 02:15:25;;;;;;;9.77;5.18;;;;;;;24.00;32.91;98147.34;5065875;28;20063;-79
2022/01/01 02:17:51;;;;;;;7.25;4.70;;;;;;;24.78;31.37;98148.50;5053320;28;20119;-79
2022/01/01 02:20:19;;;;;;;7.13;4.78;;;;;;;24.40;32.00;98154.56;5065558;28;20411;-79
2022/01/01 02:22:50;;;;;;;7.93;5.57;;;;;;;24.13;32.49;98167.19;5069149;28;20464;-80
2022/01/01 02:25:19;;;;;;;7.50;5.40;;;;;;;23.76;33.07;98159.84;5073141;28;20476;-79
2022/01/01 02:27:46;;;;;;;7.68;4.80;;;;;;;23.65;33.62;98162.06;5073174;28;20104;-79
2022/01/01 02:30:14;;;;;;;9.32;5.97;;;;;;;23.70;33.38;98164.38;5070219;28;20028;-79
2022/01/01 02:32:41;;;;;;;10.38;5.78;;;;;;;23.29;33.96;98168.28;5062049;28;20041;-80
2022/01/01 02:35:12;;;;;;;9.60;6.32;;;;;;;23.94;32.86;98177.91;5053512;28;20037;-79
2022/01/01 02:37:39;;;;;;;12.00;6.82;;;;;;;23.75;33.37;98164.69;5067397;28;20125;-79
2022/01/01 02:40:07;;;;;;;11.40;6.15;;;;;;;22.87;34.91;98182.97;5069216;28;20033;-79
2022/01/01 02:42:33;;;;;;;8.75;5.13;;;;;;;23.73;33.46;98174.75;5056627;28;20086;-79
2022/01/01 02:45:05;;;;;;;10.63;6.40;;;;;;;24.49;32.10;98177.19;5057590;28;20037;-79
2022/01/01 02:47:31;;;;;;;12.43;6.80;;;;;;;23.76;33.48;98171.88;5057045;28;20041;-79
2022/01/01 02:49:58;;;;;;;9.27;5.53;;;;;;;24.65;31.93;98179.25;5053198;28;20036;-79
2022/01/01 02:52:24;;;;;;;9.95;6.47;;;;;;;24.78;31.67;98183.00;5058075;28;20040;-79
2022/01/01 02:54:50;;;;;;;8.05;5.32;;;;;;;23.20;34.27;98168.03;5072350;28;20032;-79
2022/01/01 02:57:17;;;;;;;8.18;5.90;;;;;;;23.16;34.52;98191.72;5089083;28;20059;-79
2022/01/01 02:59:43;;;;;;;10.20;6.80;;;;;;;24.27;32.45;98186.53;5092827;28;20027;-79
2022/01/01 03:02:09;;;;;;;11.73;6.30;;;;;;;24.38;32.44;98187.06;5082560;28;20037;-79
2022/01/01 03:04:35;;;;;;;11.07;6.75;;;;;;;24.50;32.08;98192.03;5052743;28;20033;-79
2022/01/01 03:07:01;;;;;;;8.80;5.32;;;;;;;25.29;30.95;98199.03;5059566;28;20036;-79
2022/01/01 03:09:34;;;;;;;7.20;4.55;;;;;;;25.93;29.65;98194.53;5071233;28;20035;-80
2022/01/01 03:12:09;;;;;;;6.93;4.60;;;;;;;24.62;31.92;98200.56;5069047;28;20048;-79
2022/01/01 03:14:36;;;;;;;7.28;5.15;;;;;;;24.09;32.67;98203.69;5063997;28;20033;-79
2022/01/01 03:17:06;;;;;;;7.50;5.03;;;;;;;23.30;34.30;98205.50;5052489;28;20029;-79
2022/01/01 03:19:33;;;;;;;4.97;3.70;;;;;;;24.34;32.44;98200.41;5054561;28;20025;-79
2022/01/01 03:22:00;;;;;;;8.27;4.70;;;;;;;23.73;33.20;98194.38;5086866;28;20052;-79
2022/01/01 03:24:26;;;;;;;7.05;4.40;;;;;;;24.06;32.99;98210.19;5076244;28;20036;-79
2022/01/01 03:26:52;;;;;;;7.60;5.22;;;;;;;23.65;33.41;98204.91;5076360;28;20040;-79
2022/01/01 03:29:18;;;;;;;7.55;4.25;;;;;;;23.36;34.09;98199.00;5064826;28;20047;-79
2022/01/01 03:31:45;;;;;;;8.30;5.32;;;;;;;22.66;35.56;98203.69;5074273;28;20389;-79
2022/01/01 03:34:11;;;;;;;6.32;3.88;;;;;;;24.02;33.08;98213.03;5075126;28;20052;-79
2022/01/01 03:36:37;;;;;;;6.35;4.03;;;;;;;24.34;32.59;98217.25;5071194;28;20511;-79
2022/01/01 03:39:06;;;;;;;5.40;3.95;;;;;;;24.81;31.57;98215.03;5063716;28;20500;-79
2022/01/01 03:41:32;;;;;;;4.78;3.58;;;;;;;24.42;32.34;98224.28;5056269;28;20033;-79
2022/01/01 03:43:58;;;;;;;4.70;2.90;;;;;;;24.44;32.26;98221.81;5070041;28;20104;-79
2022/01/01 03:46:24;;;;;;;6.93;4.18;;;;;;;24.52;32.12;98226.06;5064097;28;20036;-79
2022/01/01 03:48:50;;;;;;;3.85;3.20;;;;;;;24.33;32.57;98235.28;5075014;28;20041;-79
2022/01/01 03:51:16;;;;;;;5.60;4.07;;;;;;;24.55;32.16;98228.78;5075840;28;20037;-79
2022/01/01 03:53:42;;;;;;;5.65;3.95;;;;;;;23.48;34.13;98238.88;5069999;28;20037;-79
2022/01/01 03:56:09;;;;;;;6.88;3.63;;;;;;;24.34;32.52;98239.69;5074623;28;20442;-79
2022/01/01 03:58:35;;;;;;;4.43;3.17;;;;;;;25.02;31.54;98248.25;5073370;28;20388;-79
2022/01/01 04:01:01;;;;;;;5.05;3.42;;;;;;;24.19;32.93;98255.22;5072752;28;20499;-79
2022/01/01 04:03:27;;;;;;;6.13;3.85;;;;;;;24.50;32.26;98254.59;5068915;28;20098;-79
2022/01/01 04:05:54;;;;;;;4.47;3.28;;;;;;;23.92;33.41;98263.72;5074484;28;20037;-79
2022/01/01 04:08:20;;;;;;;4.10;3.00;;;;;;;23.99;33.18;98250.34;5075821;28;20059;-80
2022/01/01 04:10:46;;;;;;;5.97;3.53;;;;;;;24.34;32.49;98254.50;5075213;28;20113;-79
2022/01/01 04:13:12;;;;;;;3.13;2.83;;;;;;;25.03;31.33;98249.84;5065049;28;20044;-79
2022/01/01 04:15:39;;;;;;;4.20;2.88;;;;;;;25.66;30.39;98255.94;5065781;28;20031;-79
2022/01/01 04:18:10;;;;;;;4.45;3.47;;;;;;;24.75;31.84;98256.84;5075106;28;20093;-79
2022/01/01 04:20:36;;;;;;;3.53;2.67;;;;;;;24.71;31.91;98254.09;5075753;28;20459;-79
2022/01/01 04:23:08;;;;;;;2.80;2.55;;;;;;;24.84;31.76;98264.72;5071859;28;20032;-79
2022/01/01 04:25:34;;;;;;;4.97;3.10;;;;;;;25.37;30.88;98264.25;5062066;28;20036;-79
2022/01/01 04:28:00;;;;;;;5.05;3.53;;;;;;;24.38;32.69;98262.84;5055123;28;20065;-79
2022/01/01 04:30:29;;;;;;;3.15;2.83;;;;;;;24.51;32.43;98264.56;5061059;28;20082;-79
2022/01/01 04:32:58;;;;;;;4.30;3.15;;;;;;;24.26;32.68;98258.69;5055855;28;20037;-80
2022/01/01 04:35:25;;;;;;;4.30;3.10;;;;;;;24.21;32.90;98264.78;5074100;28;20025;-79
2022/01/01 04:37:51;;;;;;;3.75;3.03;;;;;;;24.02;33.43;98262.72;5075284;28;20087;-79
2022/01/01 04:40:17;;;;;;;4.85;3.22;;;;;;;24.62;32.38;98256.72;5064559;28;20036;-79
2022/01/01 04:42:44;;;;;;;3.03;1.98;;;;;;;25.51;30.93;98269.56;5063152;28;20028;-80
2022/01/01 04:45:11;;;;;;;2.72;2.30;;;;;;;25.00;31.72;98276.78;5060369;28;20045;-79
2022/01/01 04:47:37;;;;;;;2.75;2.35;;;;;;;24.36;32.69;98265.31;5070936;28;20507;-80
2022/01/01 04:50:05;;;;;;;1.98;1.70;;;;;;;25.24;31.39;98281.03;5069014;28;20033;-80
2022/01/01 04:52:31;;;;;;;2.88;2.55;;;;;;;24.46;32.59;98278.31;5060249;28;20081;-80
2022/01/01 04:54:57;;;;;;;1.95;1.70;;;;;;;24.08;33.00;98274.28;5065349;28;20392;-79
2022/01/01 04:57:29;;;;;;;1.90;1.42;;;;;;;24.39;32.68;98282.06;5072239;28;20036;-80
2022/01/01 04:59:56;;;;;;;2.60;1.90;;;;;;;23.85;33.79;98289.84;5073473;28;20035;-80
2022/01/01 05:02:22;;;;;;;1.80;1.55;;;;;;;23.91;33.80;98279.75;5074337;28;20028;-80
2022/01/01 05:04:48;;;;;;;2.05;1.75;;;;;;;23.40;34.69;98290.63;5072551;28;20033;-80
2022/01/01 05:07:14;;;;;;;3.17;1.63;;;;;;;23.80;33.78;98281.97;5074320;28;20427;-80
2022/01/01 05:09:40;;;;;;;2.25;2.05;;;;;;;23.90;33.79;98285.78;5073787;28;20036;-80
2022/01/01 05:12:07;;;;;;;2.20;1.88;;;;;;;23.57;34.12;98295.19;5074709;28;20033;-79
2022/01/01 05:14:35;;;;;;;3.72;2.08;;;;;;;23.06;35.35;98299.91;5073754;28;20028;-80
2022/01/01 05:17:01;;;;;;;3.90;2.50;;;;;;;23.95;33.96;98290.88;5073717;28;20107;-80
2022/01/01 05:19:27;;;;;;;2.80;2.60;;;;;;;23.55;34.58;98289.22;5068213;28;20115;-80
2022/01/01 05:21:56;;;;;;;4.03;2.45;;;;;;;23.73;34.21;98295.31;5073632;28;20060;-80
2022/01/01 05:24:22;;;;;;;2.78;2.58;;;;;;;24.02;33.71;98287.97;5072256;28;20033;-80
2022/01/01 05:26:48;;;;;;;3.58;2.60;;;;;;;24.25;33.36;98298.41;5070599;28;20427;-79
2022/01/01 05:29:15;;;;;;;2.67;2.40;;;;;;;23.50;34.36;98292.50;5074432;28;20037;-80
2022/01/01 05:31:41;;;;;;;3.15;2.30;;;;;;;24.13;33.43;98302.63;5055387;28;20028;-79
2022/01/01 05:34:07;;;;;;;2.47;2.10;;;;;;;24.62;32.40;98296.00;5053665;28;20481;-79
2022/01/01 05:36:34;;;;;;;2.45;2.25;;;;;;;24.05;33.39;98298.31;5053518;28;20048;-80
2022/01/01 05:39:00;;;;;;;2.42;2.08;;;;;;;23.83;33.81;98309.13;5068373;28;20039;-80
2022/01/01 05:41:26;;;;;;;3.35;2.55;;;;;;;23.80;33.88;98301.59;5066825;28;20029;-80
2022/01/01 05:43:52;;;;;;;2.72;2.42;;;;;;;23.94;33.54;98278.88;5068744;28;20037;-80
2022/01/01 05:46:18;;;;;;;3.35;2.60;;;;;;;24.31;33.03;98291.06;5073714;28;20032;-80
2022/01/01 05:48:44;;;;;;;3.75;2.85;;;;;;;24.08;33.59;98305.13;5073698;28;20060;-80
2022/01/01 05:51:10;;;;;;;3.25;2.63;;;;;;;23.99;33.78;98320.47;5071834;28;20055;-80
2022/01/01 05:53:36;;;;;;;2.28;2.08;;;;;;;24.02;33.69;98328.03;5072001;28;20052;-80
2022/01/01 05:56:02;;;;;;;2.38;2.13;;;;;;;24.71;32.42;98326.34;5069367;28;20028;-80
2022/01/01 05:58:28;;;;;;;3.60;2.40;;;;;;;24.87;32.06;98332.06;5072251;28;20032;-80
2022/01/01 06:00:54;;;;;;;2.33;1.90;;;;;;;23.60;34.30;98339.94;5073395;28;20039;-80
2022/01/01 06:03:20;;;;;;;2.50;1.90;;;;;;;24.99;31.92;98334.22;5074090;28;20032;-80
2022/01/01 06:05:48;;;;;;;2.90;2.20;;;;;;;24.94;32.02;98328.28;5074626;28;20045;-80
2022/01/01 06:08:14;;;;;;;3.03;2.42;;;;;;;24.95;31.68;98329.88;5066851;28;20481;-80
2022/01/01 06:10:40;;;;;;;3.05;1.80;;;;;;;25.77;30.59;98323.97;5054918;28;20500;-80
2022/01/01 06:13:07;;;;;;;1.80;1.40;;;;;;;24.21;32.91;98334.13;5055756;28;20086;-80
2022/01/01 06:15:33;;;;;;;2.00;1.88;;;;;;;24.73;32.03;98321.09;5069036;28;20029;-80
2022/01/01 06:17:59;;;;;;;1.33;1.13;;;;;;;25.38;31.01;98325.69;5071066;28;20503;-80
2022/01/01 06:20:25;;;;;;;1.75;1.58;;;;;;;24.45;32.63;98341.31;5069724;28;20029;-80
2022/01/01 06:22:51;;;;;;;2.05;1.67;;;;;;;25.24;31.43;98339.25;5072821;28;20025;-80
2022/01/01 06:25:17;;;;;;;1.90;1.27;;;;;;;24.97;31.54;98341.47;5073166;28;20396;-80
2022/01/01 06:27:44;;;;;;;1.42;1.30;;;;;;;24.95;31.53;98344.72;5057406;28;20082;-80
2022/01/01 06:30:10;;;;;;;1.10;1.00;;;;;;;25.83;30.05;98339.91;5053151;28;20370;-80
2022/01/01 06:32:37;;;;;;;1.08;0.80;;;;;;;25.96;30.04;98337.94;5053574;28;20040;-81
2022/01/01 06:35:03;;;;;;;1.13;1.02;;;;;;;26.47;28.94;98349.50;5059569;28;20132;-80
2022/01/01 06:37:29;;;;;;;1.48;1.10;;;;;;;25.86;30.00;98341.81;5075384;28;20060;-80
2022/01/01 06:39:55;;;;;;;1.10;1.00;;;;;;;25.59;30.68;98351.75;5065755;28;20553;-80
2022/01/01 06:42:21;;;;;;;2.83;1.10;;;;;;;25.02;31.41;98352.97;5052998;28;20032;-80
2022/01/01 06:44:47;;;;;;;1.20;1.10;;;;;;;24.35;32.51;98357.13;5069780;28;20111;-80
2022/01/01 06:47:13;;;;;;;0.82;0.80;;;;;;;24.34;32.77;98363.94;5067285;28;20033;-80
2022/01/01 06:49:40;;;;;;;1.00;0.90;;;;;;;24.04;33.31;98378.88;5072545;28;20033;-80
2022/01/01 06:52:06;;;;;;;1.10;1.00;;;;;;;24.24;33.15;98380.97;5072906;28;20040;-80
2022/01/01 06:54:32;;;;;;;1.20;1.05;;;;;;;24.93;31.91;98368.84;5075214;28;20087;-80
2022/01/01 06:56:58;;;;;;;1.35;1.20;;;;;;;24.26;32.53;98390.56;5076848;28;20116;-80
2022/01/01 06:59:24;;;;;;;2.97;0.82;;;;;;;24.33;32.47;98390.44;5076578;28;20036;-80
2022/01/01 07:01:50;;;;;;;0.90;0.90;;;;;;;24.73;32.22;98380.06;5076678;28;20032;-80
2022/01/01 07:04:16;;;;;;;1.08;0.98;;;;;;;24.98;31.70;98385.19;5076793;28;20499;-80
2022/01/01 07:06:42;;;;;;;1.02;0.93;;;;;;;24.46;32.57;98397.00;5073944;28;20044;-80
2022/01/01 07:09:09;;;;;;;2.35;1.00;;;;;;;25.19;31.52;98396.78;5076213;28;20492;-80
2022/01/01 07:11:35;;;;;;;0.95;0.90;;;;;;;25.98;30.02;98390.97;5064944;28;20037;-80
2022/01/01 07:14:01;;;;;;;1.02;0.85;;;;;;;24.31;32.64;98397.69;5071777;28;20036;-80
2022/01/01 07:16:27;;;;;;;1.38;1.27;;;;;;;24.87;31.91;98401.47;5076163;28;20036;-80
2022/01/01 07:18:53;;;;;;;1.90;1.40;;;;;;;23.99;33.37;98409.44;5067078;28;20081;-80
2022/01/01 07:21:19;;;;;;;1.50;1.30;;;;;;;24.00;33.30;98425.03;5076249;28;20071;-80
2022/01/01 07:23:45;;;;;;;1.80;1.55;;;;;;;24.19;32.97;98404.72;5075886;28;20036;-80
2022/01/01 07:26:11;;;;;;;1.60;1.50;;;;;;;23.68;34.08;98405.91;5070201;28;20032;-80
2022/01/01 07:28:37;;;;;;;3.05;1.88;;;;;;;24.23;32.95;98413.84;5076063;28;20089;-80
2022/01/01 07:31:03;;;;;;;1.98;1.70;;;;;;;24.89;31.95;98422.28;5076653;28;20103;-80
2022/01/01 07:33:30;;;;;;;1.30;1.20;;;;;;;25.56;30.59;98434.16;5075672;28;20070;-80
2022/01/01 07:35:56;;;;;;;3.53;1.98;;;;;;;24.42;32.60;98427.16;5076207;28;20039;-80
2022/01/01 07:38:23;;;;;;;3.75;1.80;;;;;;;24.65;32.38;98429.13;5070801;28;20048;-80
2022/01/01 07:40:50;;;;;;;4.60;2.38;;;;;;;24.74;32.19;98421.75;5073142;28;20040;-80
2022/01/01 07:43:17;;;;;;;3.50;2.00;;;;;;;24.55;32.45;98419.69;5075875;28;20542;-80
2022/01/01 07:45:44;;;;;;;3.33;2.22;;;;;;;24.57;32.41;98428.50;5066528;28;20029;-80
2022/01/01 07:48:11;;;;;;;3.58;2.97;;;;;;;24.52;32.39;98437.41;5055097;28;20063;-80
2022/01/01 07:50:37;;;;;;;3.95;2.75;;;;;;;24.19;33.02;98434.78;5075532;28;20028;-80
2022/01/01 07:53:05;;;;;;;4.00;2.58;;;;;;;24.65;32.34;98437.56;5070558;28;20492;-80
2022/01/01 07:55:32;;;;;;;2.38;1.92;;;;;;;24.89;31.63;98435.53;5058551;28;20033;-80
2022/01/01 07:57:58;;;;;;;2.85;2.65;;;;;;;24.62;32.20;98449.66;5068041;28;20032;-80
2022/01/01 08:00:24;;;;;;;2.63;2.40;;;;;;;24.14;32.92;98452.91;5075332;28;20037;-80
2022/01/01 08:02:50;;;;;;;2.42;2.17;;;;;;;24.58;32.57;98455.34;5072222;28;20033;-81
2022/01/01 08:05:17;;;;;;;2.63;2.40;;;;;;;24.27;32.81;98441.88;5075548;28;20115;-80
2022/01/01 08:07:44;;;;;;;5.22;2.85;;;;;;;25.10;31.49;98457.59;5070134;28;20032;-80
2022/01/01 08:10:11;;;;;;;3.47;2.15;;;;;;;24.48;31.94;98456.31;5072457;28;20408;-80
2022/01/01 08:12:38;;;;;;;2.97;2.40;;;;;;;24.15;32.96;98460.09;5074130;28;20036;-80
2022/01/01 08:15:06;;;;;;;3.15;2.20;;;;;;;23.85;33.44;98472.13;5068129;28;20515;-80
2022/01/01 08:17:32;;;;;;;6.38;2.60;;;;;;;24.92;31.71;98462.78;5073498;28;20703;-80
2022/01/01 08:19:59;;;;;;;3.40;2.03;;;;;;;25.42;30.92;98468.97;5090235;28;20033;-80
2022/01/01 08:22:26;;;;;;;6.13;4.60;;;;;;;26.20;29.68;98470.06;5071933;28;20473;-80
2022/01/01 08:24:52;;;;;;;3.17;2.53;;;;;;;25.38;31.02;98471.88;5072980;28;20060;-80
2022/01/01 08:27:18;;;;;;;3.88;2.13;;;;;;;24.81;31.67;98479.03;5074740;28;20503;-80
2022/01/01 08:29:44;;;;;;;4.43;2.45;;;;;;;24.54;32.25;98471.47;5075428;28;20033;-80
2022/01/01 08:32:11;;;;;;;2.20;1.63;;;;;;;25.32;31.26;98482.00;5074415;28;20033;-80
2022/01/01 08:34:37;;;;;;;3.05;1.80;;;;;;;24.63;32.00;98477.31;5072542;28;20055;-80
2022/01/01 08:37:03;;;;;;;3.45;2.65;;;;;;;25.31;30.92;98477.63;5091312;28;20067;-80
2022/01/01 08:39:30;;;;;;;2.88;2.20;;;;;;;24.13;32.93;98482.19;5076172;28;20046;-80
2022/01/01 08:41:56;;;;;;;4.18;1.88;;;;;;;23.95;33.42;98487.22;5074748;28;20051;-80
2022/01/01 08:44:22;;;;;;;4.25;1.70;;;;;;;24.24;33.05;98474.38;5061234;28;20048;-80
2022/01/01 08:46:48;;;;;;;2.40;1.75;;;;;;;23.55;34.07;98480.56;5074018;28;20037;-80
2022/01/01 08:49:14;;;;;;;3.30;2.47;;;;;;;23.21;34.78;98486.19;5058862;28;20029;-80
2022/01/01 08:51:44;;;;;;;4.05;1.98;;;;;;;24.70;32.43;98487.63;5060175;28;20086;-80
2022/01/01 08:54:13;;;;;;;2.00;1.80;;;;;;;25.29;31.33;98498.97;5075707;28;20514;-80
2022/01/01 08:56:39;;;;;;;4.35;1.65;;;;;;;25.70;30.56;98492.88;5067545;28;20060;-80
2022/01/01 08:59:06;;;;;;;2.47;1.50;;;;;;;25.19;31.41;98494.34;5072368;28;20111;-80
2022/01/01 09:01:32;;;;;;;2.85;1.88;;;;;;;23.86;33.63;98504.59;5062446;28;20056;-80
2022/01/01 09:03:58;;;;;;;2.65;1.63;;;;;;;25.14;31.85;98494.84;5073622;28;20047;-80
2022/01/01 09:06:25;;;;;;;2.03;1.60;;;;;;;25.03;31.63;98499.88;5058315;28;20036;-80
2022/01/01 09:08:51;;;;;;;2.22;1.52;;;;;;;24.95;32.10;98504.81;5064391;28;20101;-80
2022/01/01 09:11:17;;;;;;;1.55;1.45;;;;;;;24.97;31.95;98508.00;5069654;28;20040;-80
2022/01/01 09:13:44;;;;;;;2.13;1.50;;;;;;;25.77;30.84;98510.41;5070179;28;20036;-80
2022/01/01 09:16:12;;;;;;;2.50;1.92;;;;;;;26.08;30.20;98502.47;5053809;28;20032;-80
2022/01/01 09:18:40;;;;;;;2.60;1.40;;;;;;;25.99;30.06;98493.84;5053834;28;20041;-80
2022/01/01 09:21:06;;;;;;;3.05;1.40;;;;;;;25.49;30.95;98511.00;5065222;28;20032;-80
2022/01/01 09:23:33;;;;;;;1.40;1.30;;;;;;;25.16;31.47;98504.41;5065405;28;20032;-80
2022/01/01 09:26:00;;;;;;;3.05;1.77;;;;;;;24.70;32.37;98512.88;5073301;28;20032;-80
2022/01/01 09:28:28;;;;;;;2.38;1.73;;;;;;;24.51;32.81;98513.63;5066884;28;20025;-80
2022/01/01 09:30:55;;;;;;;3.45;1.60;;;;;;;25.65;31.09;98515.94;5073423;28;20034;-80
2022/01/01 09:33:21;;;;;;;2.38;1.52;;;;;;;25.41;31.21;98518.75;5068090;28;20463;-80
2022/01/01 09:35:48;;;;;;;1.45;1.30;;;;;;;26.30;29.99;98520.47;5072937;28;20033;-80
2022/01/01 09:38:14;;;;;;;1.23;1.08;;;;;;;26.11;30.04;98507.28;5059179;28;20651;-80
2022/01/01 09:40:40;;;;;;;1.80;1.30;;;;;;;25.90;30.20;98516.16;5071905;28;20056;-80
2022/01/01 09:43:10;;;;;;;1.63;0.90;;;;;;;24.81;32.47;98533.19;5073021;28;20024;-80
2022/01/01 09:45:37;;;;;;;2.80;1.85;;;;;;;24.82;32.37;98528.34;5074000;28;20029;-80
2022/01/01 09:48:04;;;;;;;1.88;1.33;;;;;;;25.57;31.05;98528.53;5070670;28;20111;-80
2022/01/01 09:50:31;;;;;;;1.30;1.10;;;;;;;25.52;31.18;98529.03;5062569;28;20078;-80
2022/01/01 09:52:57;;;;;;;1.80;1.33;;;;;;;24.90;31.76;98530.59;5054232;28;20115;-80
2022/01/01 09:55:23;;;;;;;1.75;1.65;;;;;;;24.53;32.84;98531.63;5060359;28;20029;-81
2022/01/01 09:57:49;;;;;;;2.30;1.92;;;;;;;24.64;32.56;98537.06;5058909;28;20032;-80
2022/01/01 10:00:15;;;;;;;1.70;1.52;;;;;;;25.86;30.38;98535.13;5070073;28;20035;-80
2022/01/01 10:02:42;;;;;;;3.70;2.22;;;;;;;25.20;31.24;98538.09;5070925;28;20039;-80
2022/01/01 10:05:08;;;;;;;3.25;1.65;;;;;;;26.02;30.13;98533.16;5069504;28;20020;-80
2022/01/01 10:07:34;;;;;;;1.70;1.10;;;;;;;25.27;31.56;98530.31;5068619;28;20087;-80
2022/01/01 10:10:20;;;;;;;2.85;2.05;;;;;;;25.14;31.48;98540.59;5063135;28;20041;-80
2022/01/01 10:12:46;;;;;;;2.65;2.05;;;;;;;25.74;30.78;98539.41;5068852;28;20590;-80
2022/01/01 10:15:12;;;;;;;2.70;2.03;;;;;;;24.43;32.43;98537.44;5062923;28;20021;-80
2022/01/01 10:17:38;;;;;;;3.20;1.88;;;;;;;24.50;32.67;98534.50;5073453;28;20040;-80
2022/01/01 10:20:05;;;;;;;3.40;2.40;;;;;;;24.70;32.60;98538.97;5070337;28;20032;-80
2022/01/01 10:22:32;;;;;;;4.03;2.42;;;;;;;25.70;30.99;98533.06;5071363;28;20025;-80
2022/01/01 10:27:58;;;;;;;3.42;2.47;;;;;;;25.62;30.92;98539.28;5070191;28;20458;-80
2022/01/01 10:30:38;;;;;;;2.97;2.33;;;;;;;24.81;32.18;98535.97;5074424;28;20111;-80
2022/01/01 10:33:08;;;;;;;2.50;2.22;;;;;;;25.37;31.31;98537.72;5072375;28;20041;-81
2022/01/01 10:35:37;;;;;;;2.50;2.03;;;;;;;25.87;30.65;98547.97;5078454;28;20384;-80
2022/01/01 10:38:05;;;;;;;4.55;3.40;;;;;;;25.64;30.72;98542.44;5073884;28;20545;-80
2022/01/01 10:40:31;;;;;;;4.32;3.17;;;;;;;25.82;30.41;98534.41;5072601;28;20032;-80
2022/01/01 10:42:57;;;;;;;3.78;2.65;;;;;;;25.87;30.48;98542.34;5073289;28;20036;-80
2022/01/01 10:45:35;;;;;;;4.03;3.63;;;;;;;25.55;30.92;98534.59;5074424;28;20112;-80
2022/01/01 10:48:18;;;;;;;6.05;3.75;;;;;;;24.87;31.91;98541.91;5074662;28;20040;-80
2022/01/01 10:50:45;;;;;;;5.40;3.70;;;;;;;24.09;33.43;98545.94;5068733;28;20059;-80
2022/01/01 10:53:14;;;;;;;4.28;3.30;;;;;;;25.47;31.34;98533.16;5076180;28;20016;-81
2022/01/01 10:55:45;;;;;;;3.92;3.13;;;;;;;25.45;31.28;98535.59;5073364;28;20094;-80
2022/01/01 10:58:17;;;;;;;5.70;4.30;;;;;;;24.29;33.16;98540.44;5075319;28;20043;-80
2022/01/01 11:00:45;;;;;;;4.15;3.20;;;;;;;23.92;34.21;98546.97;5073077;28;20485;-80
2022/01/01 11:03:16;;;;;;;4.32;3.38;;;;;;;23.54;34.65;98537.88;5073175;28;20043;-81
2022/01/01 11:05:43;;;;;;;4.65;3.30;;;;;;;24.12;33.53;98528.28;5074744;28;20036;-80
2022/01/01 11:08:11;;;;;;;4.72;3.05;;;;;;;24.77;32.71;98537.25;5075719;28;20032;-81
2022/01/01 11:10:39;;;;;;;3.40;2.88;;;;;;;24.19;33.89;98555.44;5073530;28;20029;-81
2022/01/01 11:13:06;;;;;;;7.18;3.10;;;;;;;24.46;33.19;98539.34;5072037;28;20028;-81
2022/01/01 11:15:33;;;;;;;6.60;3.35;;;;;;;24.99;32.18;98538.50;5073183;28;20028;-80
2022/01/01 11:18:01;;;;;;;3.80;2.85;;;;;;;24.59;33.01;98543.97;5067524;28;20040;-80
2022/01/01 11:20:33;;;;;;;3.67;2.33;;;;;;;24.92;32.69;98541.44;5075647;28;20365;-80
2022/01/01 11:23:02;;;;;;;4.68;2.90;;;;;;;24.29;33.34;98546.88;5075086;28;20159;-81
2022/01/01 11:25:28;;;;;;;5.32;2.30;;;;;;;25.07;32.35;98537.13;5073667;28;20049;-81
2022/01/01 11:27:55;;;;;;;3.75;2.00;;;;;;;25.93;31.03;98538.59;5063931;28;20123;-81
2022/01/01 11:30:28;;;;;;;4.20;3.05;;;;;;;25.02;32.13;98529.97;5066833;28;20032;-81
2022/01/01 11:33:09;;;;;;;4.45;3.15;;;;;;;24.50;33.27;98542.91;5062482;28;20433;-81
2022/01/01 11:35:40;;;;;;;4.40;3.13;;;;;;;24.53;32.65;98542.03;5063177;28;20041;-81
2022/01/01 11:38:08;;;;;;;4.50;3.53;;;;;;;23.62;34.30;98532.97;5066458;28;20483;-81